createdAt,value
2022-07-30T00:01:18.560Z,14.50
2022-07-30T00:03:45.642Z,14.30
2022-07-30T00:06:12.815Z,14.20
2022-07-30T00:08:39.844Z,14.00
2022-07-30T00:11:07.060Z,14.00
2022-07-30T00:13:34.089Z,14.00
2022-07-30T00:16:01.612Z,14.00
2022-07-30T00:18:28.699Z,14.00
2022-07-30T00:20:56.407Z,14.00
2022-07-30T00:23:23.555Z,14.10
2022-07-30T00:25:50.679Z,14.10
2022-07-30T00:28:17.696Z,14.20
2022-07-30T00:30:44.915Z,14.20
2022-07-30T00:33:12.046Z,14.20
2022-07-30T00:35:39.918Z,14.20
2022-07-30T00:38:07.107Z,14.10
2022-07-30T00:40:34.349Z,14.10
2022-07-30T00:43:04.386Z,14.10
2022-07-30T00:45:31.567Z,14.10
2022-07-30T00:48:01.594Z,14.10
2022-07-30T00:50:28.701Z,14.20
2022-07-30T00:52:55.795Z,14.20
2022-07-30T00:55:22.951Z,14.30
2022-07-30T00:57:50.025Z,14.30
2022-07-30T01:00:18.727Z,14.30
2022-07-30T01:02:46.096Z,14.30
2022-07-30T01:05:13.571Z,14.30
2022-07-30T01:07:41.041Z,14.30
2022-07-30T01:10:10.425Z,14.30
2022-07-30T01:12:38.352Z,14.40
2022-07-30T01:15:08.229Z,14.40
2022-07-30T01:17:36.927Z,14.50
2022-07-30T01:20:08.509Z,14.50
2022-07-30T01:22:46.445Z,14.60
2022-07-30T01:25:32.193Z,14.50
2022-07-30T01:28:02.618Z,14.60
2022-07-30T01:30:34.803Z,14.60
2022-07-30T01:33:04.789Z,14.60
2022-07-30T01:35:33.738Z,14.60
2022-07-30T01:38:04.234Z,14.60
2022-07-30T01:40:32.736Z,14.60
2022-07-30T01:43:03.232Z,14.60
2022-07-30T01:45:41.382Z,14.60
2022-07-30T01:48:12.364Z,14.60
2022-07-30T01:50:45.273Z,14.70
2022-07-30T01:53:21.059Z,14.70
2022-07-30T01:55:49.285Z,14.70
2022-07-30T01:58:21.145Z,14.70
2022-07-30T02:00:56.066Z,14.70
2022-07-30T02:03:24.061Z,14.80
2022-07-30T02:06:18.034Z,14.80
2022-07-30T02:08:52.936Z,14.80
2022-07-30T02:11:40.203Z,14.90
2022-07-30T02:14:28.760Z,14.90
2022-07-30T02:16:58.751Z,14.90
2022-07-30T02:19:34.322Z,14.90
2022-07-30T02:22:08.480Z,14.90
2022-07-30T02:24:38.057Z,14.90
2022-07-30T02:27:13.229Z,14.80
2022-07-30T02:29:43.198Z,14.70
2022-07-30T02:32:17.845Z,14.70
2022-07-30T02:34:48.376Z,14.60
2022-07-30T02:37:18.396Z,14.50
2022-07-30T02:40:06.573Z,14.30
2022-07-30T02:42:33.892Z,14.20
2022-07-30T02:45:03.613Z,14.20
2022-07-30T02:47:32.287Z,14.10
2022-07-30T02:50:06.437Z,14.10
2022-07-30T02:52:35.091Z,14.10
2022-07-30T02:55:04.531Z,14.00
2022-07-30T02:57:33.162Z,14.10
2022-07-30T03:00:01.656Z,14.00
2022-07-30T03:02:31.523Z,14.00
2022-07-30T03:05:01.389Z,14.00
2022-07-30T03:07:29.917Z,14.00
2022-07-30T03:09:58.147Z,13.90
2022-07-30T03:12:30.365Z,13.90
2022-07-30T03:14:58.271Z,13.90
2022-07-30T03:17:28.595Z,13.90
2022-07-30T03:19:57.134Z,13.90
2022-07-30T03:22:28.942Z,13.90
2022-07-30T03:25:02.710Z,13.90
2022-07-30T03:27:31.037Z,13.90
2022-07-30T03:30:02.421Z,13.90
2022-07-30T03:32:31.040Z,13.90
2022-07-30T03:35:06.156Z,13.80
2022-07-30T03:37:37.085Z,13.80
2022-07-30T03:40:06.294Z,13.90
2022-07-30T03:42:35.761Z,13.80
2022-07-30T03:45:08.245Z,13.80
2022-07-30T03:47:42.285Z,13.80
2022-07-30T03:50:12.661Z,13.80
2022-07-30T03:52:41.786Z,13.70
2022-07-30T03:55:13.295Z,13.80
2022-07-30T03:57:46.271Z,13.70
2022-07-30T04:00:15.263Z,13.70
2022-07-30T04:02:47.838Z,13.80
2022-07-30T04:05:41.140Z,13.70
2022-07-30T04:08:11.538Z,13.80
2022-07-30T04:10:39.573Z,13.70
2022-07-30T04:13:12.346Z,13.70
2022-07-30T04:16:39.447Z,13.70
2022-07-30T04:19:15.885Z,13.70
2022-07-30T04:21:44.755Z,13.70
2022-07-30T04:24:13.053Z,13.70
2022-07-30T04:26:40.775Z,13.70
2022-07-30T04:29:13.481Z,13.70
2022-07-30T04:31:43.891Z,13.70
2022-07-30T04:34:29.954Z,13.70
2022-07-30T04:36:57.677Z,13.70
2022-07-30T04:39:25.412Z,13.70
2022-07-30T04:41:52.501Z,13.70
2022-07-30T04:44:28.928Z,13.70
2022-07-30T04:47:16.981Z,13.70
2022-07-30T04:49:57.597Z,13.70
2022-07-30T04:52:25.244Z,13.70
2022-07-30T04:55:02.731Z,13.70
2022-07-30T04:57:31.798Z,13.70
2022-07-30T04:59:59.077Z,13.70
2022-07-30T05:02:30.027Z,13.70
2022-07-30T05:04:59.445Z,13.70
2022-07-30T05:07:27.888Z,13.80
2022-07-30T05:09:55.191Z,13.80
2022-07-30T05:12:22.233Z,13.80
2022-07-30T05:14:49.484Z,13.70
2022-07-30T05:17:17.717Z,13.70
2022-07-30T05:19:44.795Z,13.80
2022-07-30T05:22:15.946Z,13.80
2022-07-30T05:24:44.517Z,13.70
2022-07-30T05:27:11.627Z,13.80
2022-07-30T05:29:38.741Z,13.80
2022-07-30T05:32:19.773Z,13.80
2022-07-30T05:34:49.873Z,13.80
2022-07-30T05:37:17.729Z,13.80
2022-07-30T05:40:02.173Z,13.80
2022-07-30T05:43:02.492Z,13.80
2022-07-30T05:45:30.116Z,13.80
2022-07-30T05:47:57.701Z,13.80
2022-07-30T05:50:25.365Z,13.80
2022-07-30T05:52:52.412Z,13.80
2022-07-30T05:55:39.808Z,13.80
2022-07-30T05:58:18.570Z,13.80
2022-07-30T06:00:46.186Z,13.90
2022-07-30T06:03:14.191Z,13.90
2022-07-30T06:06:05.478Z,13.90
2022-07-30T06:08:32.834Z,13.90
2022-07-30T06:11:00.232Z,13.90
2022-07-30T06:13:28.025Z,13.90
2022-07-30T06:15:55.388Z,13.90
2022-07-30T06:18:23.201Z,13.90
2022-07-30T06:20:54.501Z,13.90
2022-07-30T06:23:41.866Z,13.90
2022-07-30T06:26:44.389Z,13.90
2022-07-30T06:29:13.412Z,13.90
2022-07-30T06:31:41.704Z,13.90
2022-07-30T06:34:11.878Z,13.90
2022-07-30T06:36:42.704Z,13.90
2022-07-30T06:39:53.742Z,13.90
2022-07-30T06:42:29.049Z,13.90
2022-07-30T06:45:16.167Z,13.90
2022-07-30T06:48:01.850Z,13.90
2022-07-30T06:50:33.485Z,14.00
2022-07-30T06:53:00.793Z,14.00
2022-07-30T06:55:39.081Z,14.00
2022-07-30T06:58:06.554Z,14.00
2022-07-30T07:00:52.686Z,14.00
2022-07-30T07:03:22.335Z,14.00
2022-07-30T07:05:49.867Z,14.00
2022-07-30T07:08:18.671Z,14.10
2022-07-30T07:10:50.978Z,14.10
2022-07-30T07:13:27.437Z,14.10
2022-07-30T07:15:55.517Z,14.10
2022-07-30T07:18:25.775Z,14.10
2022-07-30T07:21:03.381Z,14.10
2022-07-30T07:23:39.776Z,14.10
2022-07-30T07:26:17.489Z,14.20
2022-07-30T07:28:45.373Z,14.20
2022-07-30T07:32:07.155Z,14.30
2022-07-30T07:34:00.460Z,14.30
2022-07-30T07:36:27.650Z,14.30
2022-07-30T07:38:55.165Z,14.30
2022-07-30T07:41:23.078Z,14.30
2022-07-30T07:43:50.546Z,14.40
2022-07-30T07:46:33.584Z,14.40
2022-07-30T07:49:03.288Z,14.50
2022-07-30T07:51:48.119Z,14.50
2022-07-30T07:54:22.029Z,14.50
2022-07-30T07:56:52.740Z,14.70
2022-07-30T07:59:27.726Z,14.70
2022-07-30T08:02:04.642Z,14.80
2022-07-30T08:04:58.941Z,15.00
2022-07-30T08:07:42.820Z,15.00
2022-07-30T08:10:11.317Z,15.10
2022-07-30T08:13:02.647Z,15.10
2022-07-30T08:15:48.978Z,15.10
2022-07-30T08:18:16.098Z,15.10
2022-07-30T08:20:53.912Z,15.10
2022-07-30T08:23:25.960Z,15.00
2022-07-30T08:25:53.515Z,15.00
2022-07-30T08:28:36.101Z,15.00
2022-07-30T08:31:05.288Z,15.10
2022-07-30T08:33:32.513Z,15.00
2022-07-30T08:36:04.198Z,15.00
2022-07-30T08:38:36.630Z,14.90
2022-07-30T08:41:03.829Z,14.90
2022-07-30T08:43:31.634Z,14.90
2022-07-30T08:46:02.918Z,14.90
2022-07-30T08:48:53.337Z,14.90
2022-07-30T08:51:23.003Z,14.90
2022-07-30T08:54:09.158Z,15.00
2022-07-30T08:56:37.428Z,15.00
2022-07-30T08:59:06.852Z,15.00
2022-07-30T09:01:34.019Z,15.10
2022-07-30T09:04:01.244Z,15.20
2022-07-30T09:06:29.121Z,15.20
2022-07-30T09:08:56.723Z,15.30
2022-07-30T09:11:23.901Z,15.40
2022-07-30T09:13:51.774Z,15.50
2022-07-30T09:16:24.781Z,15.70
2022-07-30T09:18:54.857Z,15.90
2022-07-30T09:21:29.401Z,16.00
2022-07-30T09:24:13.545Z,16.20
2022-07-30T09:26:59.401Z,16.30
2022-07-30T09:29:57.535Z,16.50
2022-07-30T09:32:54.490Z,16.40
2022-07-30T09:35:30.634Z,16.60
2022-07-30T09:38:10.686Z,16.70
2022-07-30T09:40:58.265Z,16.80
2022-07-30T09:43:46.438Z,16.70
2022-07-30T09:46:22.583Z,16.70
2022-07-30T09:48:50.934Z,16.80
2022-07-30T09:51:23.824Z,16.80
2022-07-30T09:54:07.665Z,16.90
2022-07-30T09:56:37.162Z,17.20
2022-07-30T09:59:07.250Z,17.30
2022-07-30T10:02:00.845Z,17.50
2022-07-30T10:04:47.231Z,17.70
2022-07-30T10:07:25.371Z,17.70
2022-07-30T10:09:54.383Z,17.90
2022-07-30T10:12:24.251Z,18.30
2022-07-30T10:14:55.025Z,18.80
2022-07-30T10:17:22.906Z,19.40
2022-07-30T10:20:09.417Z,19.90
2022-07-30T10:22:55.694Z,20.20
2022-07-30T10:25:57.341Z,20.20
2022-07-30T10:28:51.135Z,20.00
2022-07-30T10:31:47.484Z,20.10
2022-07-30T10:34:08.061Z,20.00
2022-07-30T10:36:36.223Z,19.90
2022-07-30T10:39:05.487Z,19.90
2022-07-30T10:41:57.432Z,19.90
2022-07-30T10:44:35.528Z,19.80
2022-07-30T10:47:09.381Z,19.90
2022-07-30T10:49:41.106Z,19.60
2022-07-30T10:52:14.310Z,19.60
2022-07-30T10:54:47.557Z,19.70
2022-07-30T10:57:31.814Z,19.50
2022-07-30T11:00:03.824Z,19.70
2022-07-30T11:02:35.684Z,20.00
2022-07-30T11:05:18.730Z,20.30
2022-07-30T11:08:42.979Z,20.70
2022-07-30T11:12:01.071Z,20.30
2022-07-30T11:14:11.038Z,20.30
2022-07-30T11:16:39.766Z,20.60
2022-07-30T11:19:56.793Z,20.70
2022-07-30T11:22:51.115Z,20.90
2022-07-30T11:25:50.375Z,21.20
2022-07-30T11:28:41.087Z,21.20
2022-07-30T11:31:36.883Z,21.20
2022-07-30T11:34:20.464Z,21.30
2022-07-30T11:37:18.410Z,21.50
2022-07-30T11:39:56.589Z,21.30
2022-07-30T11:42:32.600Z,21.50
2022-07-30T11:45:18.391Z,21.80
2022-07-30T11:47:57.411Z,21.90
2022-07-30T11:50:27.496Z,22.00
2022-07-30T11:53:09.169Z,22.60
2022-07-30T11:55:45.282Z,23.40
2022-07-30T11:58:37.350Z,24.00
2022-07-30T12:01:15.180Z,24.10
2022-07-30T12:03:44.345Z,23.90
2022-07-30T12:06:20.023Z,23.70
2022-07-30T12:08:51.975Z,23.80
2022-07-30T12:11:21.371Z,24.10
2022-07-30T12:14:02.689Z,24.20
2022-07-30T12:16:33.590Z,24.50
2022-07-30T12:19:09.695Z,24.60
2022-07-30T12:21:39.881Z,24.50
2022-07-30T12:24:14.751Z,24.50
2022-07-30T12:26:42.289Z,25.00
2022-07-30T12:29:14.430Z,25.60
2022-07-30T12:31:42.597Z,25.80
2022-07-30T12:34:27.377Z,25.50
2022-07-30T12:36:55.570Z,25.10
2022-07-30T12:39:25.580Z,24.70
2022-07-30T12:41:56.262Z,24.50
2022-07-30T12:44:41.858Z,24.30
2022-07-30T12:47:26.818Z,24.60
2022-07-30T12:49:55.938Z,25.30
2022-07-30T12:52:29.049Z,26.00
2022-07-30T12:55:05.275Z,26.30
2022-07-30T12:57:52.259Z,26.00
2022-07-30T13:00:19.901Z,25.50
2022-07-30T13:02:47.683Z,25.00
2022-07-30T13:05:15.085Z,24.70
2022-07-30T13:07:55.321Z,24.50
2022-07-30T13:10:24.209Z,24.30
2022-07-30T13:12:54.592Z,24.10
2022-07-30T13:15:22.734Z,24.00
2022-07-30T13:17:50.237Z,23.80
2022-07-30T13:20:17.993Z,23.50
2022-07-30T13:22:45.942Z,23.30
2022-07-30T13:25:13.757Z,23.10
2022-07-30T13:27:41.223Z,22.80
2022-07-30T13:30:10.481Z,22.70
2022-07-30T13:32:37.765Z,22.70
2022-07-30T13:35:05.367Z,22.50
2022-07-30T13:37:37.560Z,22.40
2022-07-30T13:40:06.679Z,22.30
2022-07-30T13:42:33.967Z,22.30
2022-07-30T13:45:01.126Z,22.40
2022-07-30T13:47:29.122Z,22.40
2022-07-30T13:49:56.545Z,22.20
2022-07-30T13:52:23.570Z,22.10
2022-07-30T13:54:53.775Z,22.10
2022-07-30T13:57:20.958Z,22.10
2022-07-30T13:59:48.275Z,22.10
2022-07-30T14:02:16.216Z,22.00
2022-07-30T14:04:43.496Z,21.90
2022-07-30T14:07:10.636Z,21.90
2022-07-30T14:09:44.903Z,21.90
2022-07-30T14:12:15.675Z,21.90
2022-07-30T14:14:43.147Z,21.80
2022-07-30T14:17:14.565Z,21.80
2022-07-30T14:19:47.436Z,21.60
2022-07-30T14:22:14.996Z,21.70
2022-07-30T14:24:42.068Z,21.60
2022-07-30T14:27:11.052Z,21.70
2022-07-30T14:29:38.376Z,21.80
2022-07-30T14:32:06.572Z,21.60
2022-07-30T14:34:33.898Z,21.60
2022-07-30T14:37:04.845Z,21.70
2022-07-30T14:39:37.415Z,21.80
2022-07-30T14:42:06.426Z,21.80
2022-07-30T14:44:35.409Z,21.60
2022-07-30T14:47:04.293Z,21.50
2022-07-30T14:49:32.146Z,21.40
2022-07-30T14:52:02.203Z,21.30
2022-07-30T14:54:31.727Z,21.10
2022-07-30T14:57:01.067Z,21.10
2022-07-30T14:59:30.873Z,21.10
2022-07-30T15:01:58.073Z,21.00
2022-07-30T15:04:25.791Z,21.10
2022-07-30T15:06:53.060Z,21.00
2022-07-30T15:09:20.449Z,21.10
2022-07-30T15:12:09.396Z,21.20
2022-07-30T15:14:35.100Z,21.40
2022-07-30T15:17:04.497Z,21.80
2022-07-30T15:19:32.821Z,22.00
2022-07-30T15:22:02.893Z,22.10
2022-07-30T15:24:31.636Z,22.10
2022-07-30T15:26:59.168Z,22.00
2022-07-30T15:29:29.377Z,21.90
2022-07-30T15:31:57.277Z,21.70
2022-07-30T15:34:24.534Z,21.60
2022-07-30T15:36:51.719Z,21.50
2022-07-30T15:39:18.816Z,21.60
2022-07-30T15:41:45.981Z,21.50
2022-07-30T15:44:13.972Z,21.20
2022-07-30T15:46:41.037Z,21.10
2022-07-30T15:49:08.331Z,20.90
2022-07-30T15:51:36.033Z,20.90
2022-07-30T15:54:03.220Z,20.70
2022-07-30T15:56:34.453Z,20.40
2022-07-30T15:59:01.619Z,20.10
2022-07-30T16:01:28.722Z,19.90
2022-07-30T16:03:55.815Z,19.70
2022-07-30T16:06:22.876Z,19.60
2022-07-30T16:08:50.034Z,19.60
2022-07-30T16:11:17.066Z,19.60
2022-07-30T16:13:44.179Z,19.40
2022-07-30T16:16:11.356Z,19.40
2022-07-30T16:18:38.473Z,19.40
2022-07-30T16:21:06.096Z,19.20
2022-07-30T16:23:36.572Z,19.00
2022-07-30T16:27:12.895Z,19.10
2022-07-30T16:29:40.290Z,19.00
2022-07-30T16:32:07.355Z,18.90
2022-07-30T16:34:34.621Z,18.80
2022-07-30T16:37:07.046Z,18.90
2022-07-30T16:39:36.723Z,18.90
2022-07-30T16:42:04.529Z,18.90
2022-07-30T16:44:35.935Z,18.90
2022-07-30T16:47:03.121Z,18.80
2022-07-30T16:49:33.113Z,18.90
2022-07-30T16:52:01.980Z,18.90
2022-07-30T16:54:31.674Z,18.90
2022-07-30T16:56:59.027Z,18.80
2022-07-30T16:59:29.256Z,18.80
2022-07-30T17:01:56.729Z,18.70
2022-07-30T17:04:23.945Z,18.70
2022-07-30T17:06:51.746Z,18.60
2022-07-30T17:09:18.967Z,18.60
2022-07-30T17:11:52.371Z,18.70
2022-07-30T17:14:22.360Z,18.70
2022-07-30T17:16:49.665Z,18.70
2022-07-30T17:19:16.932Z,18.60
2022-07-30T17:21:44.022Z,18.60
2022-07-30T17:24:11.983Z,18.50
2022-07-30T17:26:43.027Z,18.50
2022-07-30T17:29:15.291Z,18.30
2022-07-30T17:31:44.655Z,18.00
2022-07-30T17:34:14.105Z,17.80
2022-07-30T17:36:44.274Z,17.80
2022-07-30T17:40:24.758Z,17.80
2022-07-30T17:42:06.287Z,17.70
2022-07-30T17:44:33.615Z,17.70
2022-07-30T17:47:00.813Z,17.60
2022-07-30T17:49:30.586Z,17.70
2022-07-30T17:51:58.244Z,17.70
2022-07-30T17:54:25.602Z,17.70
2022-07-30T17:56:52.932Z,17.70
2022-07-30T17:59:20.098Z,17.70
2022-07-30T18:01:47.303Z,17.60
2022-07-30T18:04:14.745Z,17.60
2022-07-30T18:06:41.877Z,17.60
2022-07-30T18:09:08.987Z,17.60
2022-07-30T18:11:36.534Z,17.60
2022-07-30T18:14:03.998Z,17.60
2022-07-30T18:16:31.091Z,17.60
2022-07-30T18:18:58.135Z,17.70
2022-07-30T18:21:25.544Z,17.70
2022-07-30T18:23:52.566Z,17.70
2022-07-30T18:26:19.693Z,17.70
2022-07-30T18:28:48.830Z,17.80
2022-07-30T18:31:16.129Z,17.80
2022-07-30T18:33:44.302Z,17.80
2022-07-30T18:36:11.884Z,17.80
2022-07-30T18:38:39.264Z,17.70
2022-07-30T18:41:06.473Z,17.70
2022-07-30T18:43:47.767Z,17.70
2022-07-30T18:46:15.858Z,17.80
2022-07-30T18:48:43.232Z,17.70
2022-07-30T18:51:13.867Z,17.60
2022-07-30T18:53:42.220Z,17.60
2022-07-30T18:56:09.499Z,17.60
2022-07-30T18:58:38.461Z,17.60
2022-07-30T19:01:05.610Z,17.60
2022-07-30T19:03:32.809Z,17.60
2022-07-30T19:06:00.120Z,17.70
2022-07-30T19:08:27.744Z,17.60
2022-07-30T19:10:54.921Z,17.40
2022-07-30T19:13:24.259Z,17.00
2022-07-30T19:15:51.431Z,16.60
2022-07-30T19:18:18.577Z,16.40
2022-07-30T19:20:46.282Z,16.20
2022-07-30T19:23:15.250Z,16.00
2022-07-30T19:25:42.349Z,15.90
2022-07-30T19:28:11.314Z,15.90
2022-07-30T19:30:43.742Z,15.90
2022-07-30T19:33:15.514Z,15.80
2022-07-30T19:35:43.933Z,15.80
2022-07-30T19:38:14.273Z,15.70
2022-07-30T19:40:49.499Z,15.60
2022-07-30T19:43:16.664Z,15.50
2022-07-30T19:45:46.669Z,15.40
2022-07-30T19:48:29.203Z,15.30
2022-07-30T19:50:59.422Z,15.30
2022-07-30T19:53:31.160Z,15.20
2022-07-30T19:56:03.313Z,15.20
2022-07-30T19:58:31.269Z,15.10
2022-07-30T20:01:00.194Z,15.10
2022-07-30T20:03:29.402Z,15.00
2022-07-30T20:06:00.276Z,15.00
2022-07-30T20:08:30.505Z,15.00
2022-07-30T20:10:59.387Z,14.90
2022-07-30T20:13:43.969Z,15.00
2022-07-30T20:16:17.091Z,14.90
2022-07-30T20:18:46.125Z,14.90
2022-07-30T20:24:02.875Z,14.80
2022-07-30T20:26:30.158Z,14.90
2022-07-30T20:28:57.788Z,14.80
2022-07-30T20:31:26.357Z,14.70
2022-07-30T20:33:53.527Z,14.70
2022-07-30T20:36:22.403Z,14.70
2022-07-30T20:38:49.823Z,14.70
2022-07-30T20:41:17.156Z,14.60
2022-07-30T20:43:45.856Z,14.50
2022-07-30T20:46:20.685Z,14.40
2022-07-30T20:48:51.851Z,14.20
2022-07-30T20:51:19.254Z,14.10
2022-07-30T20:53:47.291Z,14.10
2022-07-30T20:56:19.310Z,14.00
2022-07-30T20:58:48.352Z,14.00
2022-07-30T21:01:17.596Z,13.90
2022-07-30T21:03:47.701Z,13.70
2022-07-30T21:06:15.540Z,13.70
2022-07-30T21:08:42.586Z,13.70
2022-07-30T21:11:09.924Z,13.60
2022-07-30T21:13:38.501Z,13.60
2022-07-30T21:16:15.430Z,13.60
2022-07-30T21:18:50.217Z,13.60
2022-07-30T21:21:30.695Z,13.60
2022-07-30T21:24:11.657Z,13.60
2022-07-30T21:26:40.616Z,13.60
2022-07-30T21:29:08.550Z,13.60
2022-07-30T21:32:01.201Z,13.60
2022-07-30T21:34:25.935Z,13.60
2022-07-30T21:36:54.446Z,13.60
2022-07-30T21:39:28.804Z,13.60
2022-07-30T21:41:57.061Z,13.50
2022-07-30T21:44:24.452Z,13.40
2022-07-30T21:46:52.650Z,13.40
2022-07-30T21:49:20.894Z,13.40
2022-07-30T21:51:48.706Z,13.30
2022-07-30T21:54:28.559Z,13.40
2022-07-30T21:56:58.095Z,13.50
2022-07-30T21:59:27.608Z,13.50
2022-07-30T22:01:55.661Z,13.50
2022-07-30T22:04:23.037Z,13.50
2022-07-30T22:06:51.523Z,13.50
2022-07-30T22:09:33.208Z,13.50
2022-07-30T22:12:09.277Z,13.50
2022-07-30T22:14:39.963Z,13.50
2022-07-30T22:17:22.649Z,13.50
2022-07-30T22:19:50.852Z,13.50
2022-07-30T22:22:27.712Z,13.50
2022-07-30T22:24:57.298Z,13.50
2022-07-30T22:27:28.028Z,13.60
2022-07-30T22:30:09.257Z,13.50
2022-07-30T22:32:36.817Z,13.60
2022-07-30T22:35:07.278Z,13.60
2022-07-30T22:37:34.403Z,13.60
2022-07-30T22:40:01.826Z,13.60
2022-07-30T22:42:28.967Z,13.60
2022-07-30T22:44:57.588Z,13.60
2022-07-30T22:47:50.644Z,13.70
2022-07-30T22:50:11.944Z,13.60
2022-07-30T22:52:49.056Z,13.60
2022-07-30T22:55:24.486Z,13.60
2022-07-30T22:57:51.909Z,13.70
2022-07-30T23:00:28.009Z,13.60
2022-07-30T23:02:56.982Z,13.60
2022-07-30T23:05:25.174Z,13.70
2022-07-30T23:07:52.677Z,13.60
2022-07-30T23:10:20.777Z,13.60
2022-07-30T23:12:19.012Z,14.90
2022-07-30T23:12:51.918Z,13.60
2022-07-30T23:15:20.055Z,13.60
2022-07-30T23:17:47.828Z,13.60
2022-07-30T23:20:18.540Z,13.60
2022-07-30T23:22:45.882Z,13.60
2022-07-30T23:25:13.551Z,13.60
2022-07-30T23:27:41.348Z,13.60
2022-07-30T23:30:10.303Z,13.70
2022-07-30T23:32:38.213Z,13.70
2022-07-30T23:35:06.891Z,13.70
2022-07-30T23:37:47.525Z,13.60
2022-07-30T23:40:16.678Z,13.60
2022-07-30T23:42:43.826Z,13.60
2022-07-30T23:45:11.254Z,13.60
2022-07-30T23:48:01.220Z,13.70
2022-07-30T23:50:26.000Z,13.60
2022-07-30T23:52:53.088Z,13.70
2022-07-30T23:55:20.416Z,13.60
2022-07-30T23:57:47.494Z,13.60
